sensor_id;sensor_type;location;lat;lon;timestamp;temperature;humidity
30150;DHT22;16962;48.646;9.026;2022-11-20T00:06:44;3.80;1.00
30150;DHT22;16962;48.646;9.026;2022-11-20T00:10:17;3.80;1.00
30150;DHT22;16962;48.646;9.026;2022-11-20T00:18:01;3.70;1.00
30150;DHT22;16962;48.646;9.026;2022-11-20T00:32:15;3.60;99.90
30150;DHT22;16962;48.646;9.026;2022-11-20T00:35:42;3.60;99.90
30150;DHT22;16962;48.646;9.026;2022-11-20T00:38:41;3.60;99.90
30150;DHT22;16962;48.646;9.026;2022-11-20T00:42:15;3.60;99.90
30150;DHT22;16962;48.646;9.026;2022-11-20T00:46:21;3.60;99.90
30150;DHT22;16962;48.646;9.026;2022-11-20T00:49:37;3.60;99.90
30150;DHT22;16962;48.646;9.026;2022-11-20T00:53:27;3.60;99.90
30150;DHT22;16962;48.646;9.026;2022-11-20T01:01:02;3.50;55.30
30150;DHT22;16962;48.646;9.026;2022-11-20T01:08:00;3.50;99.90
30150;DHT22;16962;48.646;9.026;2022-11-20T01:11:19;3.40;99.90
30150;DHT22;16962;48.646;9.026;2022-11-20T01:14:29;3.40;99.90
30150;DHT22;16962;48.646;9.026;2022-11-20T01:18:05;3.30;99.90
30150;DHT22;16962;48.646;9.026;2022-11-20T01:21:20;3.30;99.90
30150;DHT22;16962;48.646;9.026;2022-11-20T01:24:44;3.30;99.90
30150;DHT22;16962;48.646;9.026;2022-11-20T02:00:59;3.00;99.90
30150;DHT22;16962;48.646;9.026;2022-11-20T02:04:37;3.10;99.90
30150;DHT22;16962;48.646;9.026;2022-11-20T02:07:50;3.10;99.90
30150;DHT22;16962;48.646;9.026;2022-11-20T02:10:58;3.10;99.90
30150;DHT22;16962;48.646;9.026;2022-11-20T02:13:50;3.00;99.90
30150;DHT22;16962;48.646;9.026;2022-11-20T02:21:20;3.10;99.90
30150;DHT22;16962;48.646;9.026;2022-11-20T02:33:19;3.10;99.90
30150;DHT22;16962;48.646;9.026;2022-11-20T02:36:37;3.10;99.90
30150;DHT22;16962;48.646;9.026;2022-11-20T02:43:32;3.20;99.90
30150;DHT22;16962;48.646;9.026;2022-11-20T02:46:22;3.30;99.90
30150;DHT22;16962;48.646;9.026;2022-11-20T02:49:38;3.20;99.90
30150;DHT22;16962;48.646;9.026;2022-11-20T02:53:26;3.30;99.90
30150;DHT22;16962;48.646;9.026;2022-11-20T03:42:05;2.80;99.90
30150;DHT22;16962;48.646;9.026;2022-11-20T03:46:01;2.90;99.90
30150;DHT22;16962;48.646;9.026;2022-11-20T03:49:48;2.90;99.90
30150;DHT22;16962;48.646;9.026;2022-11-20T04:10:12;2.80;99.90
30150;DHT22;16962;48.646;9.026;2022-11-20T04:37:52;3.50;99.90
30150;DHT22;16962;48.646;9.026;2022-11-20T04:41:42;3.50;99.90
30150;DHT22;16962;48.646;9.026;2022-11-20T05:01:03;3.60;59.50
30150;DHT22;16962;48.646;9.026;2022-11-20T05:12:24;3.60;1.00
30150;DHT22;16962;48.646;9.026;2022-11-20T05:19:57;3.70;1.00
30150;DHT22;16962;48.646;9.026;2022-11-20T05:23:18;3.70;99.90
30150;DHT22;16962;48.646;9.026;2022-11-20T05:26:59;3.70;99.90
30150;DHT22;16962;48.646;9.026;2022-11-20T05:33:59;3.70;99.90
30150;DHT22;16962;48.646;9.026;2022-11-20T05:37:18;3.60;56.00
30150;DHT22;16962;48.646;9.026;2022-11-20T05:55:35;3.60;90.00
30150;DHT22;16962;48.646;9.026;2022-11-20T05:58:36;3.60;82.50
30150;DHT22;16962;48.646;9.026;2022-11-20T06:02:31;3.60;1.00
30150;DHT22;16962;48.646;9.026;2022-11-20T06:23:50;3.70;99.90
30150;DHT22;16962;48.646;9.026;2022-11-20T06:30:47;3.70;29.90
30150;DHT22;16962;48.646;9.026;2022-11-20T06:33:55;3.70;55.40
30150;DHT22;16962;48.646;9.026;2022-11-20T06:36:42;3.70;51.00
30150;DHT22;16962;48.646;9.026;2022-11-20T06:39:29;3.70;1.00
30150;DHT22;16962;48.646;9.026;2022-11-20T06:42:16;3.70;1.00
30150;DHT22;16962;48.646;9.026;2022-11-20T06:45:05;3.70;1.00
30150;DHT22;16962;48.646;9.026;2022-11-20T06:47:57;3.70;1.20
30150;DHT22;16962;48.646;9.026;2022-11-20T06:50:44;3.70;1.00
30150;DHT22;16962;48.646;9.026;2022-11-20T06:53:31;3.70;1.00
30150;DHT22;16962;48.646;9.026;2022-11-20T06:56:19;3.70;1.00
30150;DHT22;16962;48.646;9.026;2022-11-20T06:59:07;3.80;99.90
30150;DHT22;16962;48.646;9.026;2022-11-20T07:01:55;3.90;99.90
30150;DHT22;16962;48.646;9.026;2022-11-20T07:04:45;3.80;99.90
30150;DHT22;16962;48.646;9.026;2022-11-20T07:08:08;3.90;99.90
30150;DHT22;16962;48.646;9.026;2022-11-20T07:23:15;4.10;1.00
30150;DHT22;16962;48.646;9.026;2022-11-20T07:26:06;4.10;1.00
30150;DHT22;16962;48.646;9.026;2022-11-20T07:28:53;4.10;1.00
30150;DHT22;16962;48.646;9.026;2022-11-20T07:31:41;4.10;1.00
30150;DHT22;16962;48.646;9.026;2022-11-20T07:34:28;4.10;1.00
30150;DHT22;16962;48.646;9.026;2022-11-20T07:37:15;4.10;1.00
30150;DHT22;16962;48.646;9.026;2022-11-20T07:40:05;4.20;99.90
30150;DHT22;16962;48.646;9.026;2022-11-20T07:42:54;4.20;99.90
30150;DHT22;16962;48.646;9.026;2022-11-20T07:45:41;4.20;99.90
30150;DHT22;16962;48.646;9.026;2022-11-20T07:48:29;4.20;99.90
30150;DHT22;16962;48.646;9.026;2022-11-20T07:51:16;4.20;99.90
30150;DHT22;16962;48.646;9.026;2022-11-20T07:54:05;4.30;99.90
30150;DHT22;16962;48.646;9.026;2022-11-20T07:56:54;4.30;99.90
30150;DHT22;16962;48.646;9.026;2022-11-20T07:59:41;4.20;1.00
30150;DHT22;16962;48.646;9.026;2022-11-20T08:02:28;4.20;93.50
30150;DHT22;16962;48.646;9.026;2022-11-20T08:05:15;4.20;99.90
30150;DHT22;16962;48.646;9.026;2022-11-20T08:08:03;4.20;99.90
30150;DHT22;16962;48.646;9.026;2022-11-20T08:10:50;4.30;1.00
30150;DHT22;16962;48.646;9.026;2022-11-20T08:13:40;4.30;1.00
30150;DHT22;16962;48.646;9.026;2022-11-20T08:16:49;4.40;43.30
30150;DHT22;16962;48.646;9.026;2022-11-20T08:19:38;4.50;99.90
30150;DHT22;16962;48.646;9.026;2022-11-20T08:22:26;4.60;91.60
30150;DHT22;16962;48.646;9.026;2022-11-20T08:25:13;4.60;99.90
30150;DHT22;16962;48.646;9.026;2022-11-20T08:28:01;4.60;99.90
30150;DHT22;16962;48.646;9.026;2022-11-20T08:31:04;4.70;99.90
30150;DHT22;16962;48.646;9.026;2022-11-20T08:33:51;4.70;1.00
30150;DHT22;16962;48.646;9.026;2022-11-20T08:36:39;4.80;1.00
30150;DHT22;16962;48.646;9.026;2022-11-20T08:39:26;4.80;1.00
30150;DHT22;16962;48.646;9.026;2022-11-20T08:42:13;4.90;99.90
30150;DHT22;16962;48.646;9.026;2022-11-20T08:45:00;4.90;99.90
30150;DHT22;16962;48.646;9.026;2022-11-20T08:47:50;4.90;99.90
30150;DHT22;16962;48.646;9.026;2022-11-20T08:50:37;5.00;99.90
30150;DHT22;16962;48.646;9.026;2022-11-20T08:53:27;5.10;1.00
30150;DHT22;16962;48.646;9.026;2022-11-20T08:56:15;5.20;99.90
30150;DHT22;16962;48.646;9.026;2022-11-20T08:59:04;5.30;99.90
30150;DHT22;16962;48.646;9.026;2022-11-20T09:02:11;5.50;1.00
30150;DHT22;16962;48.646;9.026;2022-11-20T09:04:58;5.40;99.90
30150;DHT22;16962;48.646;9.026;2022-11-20T09:07:46;5.50;61.80
30150;DHT22;16962;48.646;9.026;2022-11-20T09:10:33;5.50;99.90
30150;DHT22;16962;48.646;9.026;2022-11-20T09:13:21;5.50;67.40
30150;DHT22;16962;48.646;9.026;2022-11-20T09:16:10;5.50;1.00
30150;DHT22;16962;48.646;9.026;2022-11-20T09:18:59;5.50;99.90
30150;DHT22;16962;48.646;9.026;2022-11-20T09:22:07;5.40;1.00
30150;DHT22;16962;48.646;9.026;2022-11-20T09:24:56;5.30;1.00
30150;DHT22;16962;48.646;9.026;2022-11-20T09:27:45;5.30;99.90
30150;DHT22;16962;48.646;9.026;2022-11-20T09:30:33;5.30;99.90
30150;DHT22;16962;48.646;9.026;2022-11-20T09:33:22;5.40;99.90
30150;DHT22;16962;48.646;9.026;2022-11-20T09:36:10;5.30;1.00
30150;DHT22;16962;48.646;9.026;2022-11-20T09:38:57;5.30;99.90
30150;DHT22;16962;48.646;9.026;2022-11-20T09:54:25;5.30;5.20
30150;DHT22;16962;48.646;9.026;2022-11-20T09:57:29;5.30;1.00
30150;DHT22;16962;48.646;9.026;2022-11-20T10:00:18;5.30;1.00
30150;DHT22;16962;48.646;9.026;2022-11-20T10:03:21;5.30;1.00
30150;DHT22;16962;48.646;9.026;2022-11-20T10:07:07;5.30;99.90
30150;DHT22;16962;48.646;9.026;2022-11-20T10:10:19;5.30;99.90
30150;DHT22;16962;48.646;9.026;2022-11-20T10:16:40;5.40;99.90
30150;DHT22;16962;48.646;9.026;2022-11-20T10:22:54;5.40;99.90
30150;DHT22;16962;48.646;9.026;2022-11-20T10:25:50;5.30;99.90
30150;DHT22;16962;48.646;9.026;2022-11-20T10:31:57;5.40;99.90
30150;DHT22;16962;48.646;9.026;2022-11-20T10:38:38;5.50;99.90
30150;DHT22;16962;48.646;9.026;2022-11-20T10:41:40;5.50;99.90
30150;DHT22;16962;48.646;9.026;2022-11-20T10:44:29;5.50;99.90
30150;DHT22;16962;48.646;9.026;2022-11-20T10:47:42;5.50;99.90
30150;DHT22;16962;48.646;9.026;2022-11-20T10:50:29;5.50;99.90
30150;DHT22;16962;48.646;9.026;2022-11-20T10:56:35;5.70;99.90
30150;DHT22;16962;48.646;9.026;2022-11-20T11:02:51;6.10;9.00
30150;DHT22;16962;48.646;9.026;2022-11-20T11:05:53;6.30;99.90
30150;DHT22;16962;48.646;9.026;2022-11-20T11:08:43;6.40;99.90
30150;DHT22;16962;48.646;9.026;2022-11-20T11:11:33;6.50;1.00
30150;DHT22;16962;48.646;9.026;2022-11-20T14:58:44;5.50;99.90
30150;DHT22;16962;48.646;9.026;2022-11-20T15:11:19;5.20;99.90
30150;DHT22;16962;48.646;9.026;2022-11-20T17:10:19;5.10;1.00
30150;DHT22;16962;48.646;9.026;2022-11-20T17:41:43;5.20;1.00
30150;DHT22;16962;48.646;9.026;2022-11-20T17:44:31;5.30;1.00
30150;DHT22;16962;48.646;9.026;2022-11-20T17:47:18;5.30;1.00
30150;DHT22;16962;48.646;9.026;2022-11-20T17:50:06;5.30;1.00
30150;DHT22;16962;48.646;9.026;2022-11-20T17:52:54;5.30;1.00
30150;DHT22;16962;48.646;9.026;2022-11-20T17:55:43;5.30;99.90
30150;DHT22;16962;48.646;9.026;2022-11-20T17:58:49;5.30;99.90
30150;DHT22;16962;48.646;9.026;2022-11-20T18:01:37;5.30;99.90
30150;DHT22;16962;48.646;9.026;2022-11-20T18:04:25;5.30;99.90
30150;DHT22;16962;48.646;9.026;2022-11-20T18:07:13;5.30;99.90
30150;DHT22;16962;48.646;9.026;2022-11-20T18:10:03;5.30;99.90
30150;DHT22;16962;48.646;9.026;2022-11-20T18:12:53;5.20;99.90
30150;DHT22;16962;48.646;9.026;2022-11-20T18:15:43;5.30;99.90
30150;DHT22;16962;48.646;9.026;2022-11-20T18:18:30;5.30;99.90
30150;DHT22;16962;48.646;9.026;2022-11-20T18:21:17;5.30;99.90
30150;DHT22;16962;48.646;9.026;2022-11-20T18:24:06;5.30;99.90
30150;DHT22;16962;48.646;9.026;2022-11-20T18:26:54;5.30;99.90
30150;DHT22;16962;48.646;9.026;2022-11-20T18:29:42;5.30;99.90
30150;DHT22;16962;48.646;9.026;2022-11-20T18:32:33;5.30;99.90
30150;DHT22;16962;48.646;9.026;2022-11-20T18:35:22;5.10;99.90
30150;DHT22;16962;48.646;9.026;2022-11-20T18:38:10;5.00;99.90
30150;DHT22;16962;48.646;9.026;2022-11-20T18:40:59;5.00;99.90
30150;DHT22;16962;48.646;9.026;2022-11-20T18:43:50;5.00;1.00
30150;DHT22;16962;48.646;9.026;2022-11-20T18:46:56;5.00;1.00
30150;DHT22;16962;48.646;9.026;2022-11-20T18:49:46;4.90;1.00
30150;DHT22;16962;48.646;9.026;2022-11-20T18:52:41;4.80;1.00
30150;DHT22;16962;48.646;9.026;2022-11-20T18:55:30;4.80;1.00
30150;DHT22;16962;48.646;9.026;2022-11-20T18:58:18;4.80;36.10
30150;DHT22;16962;48.646;9.026;2022-11-20T19:01:06;4.80;95.70
30150;DHT22;16962;48.646;9.026;2022-11-20T19:03:54;4.70;99.90
30150;DHT22;16962;48.646;9.026;2022-11-20T19:06:45;4.60;99.90
30150;DHT22;16962;48.646;9.026;2022-11-20T19:09:40;4.60;99.90
30150;DHT22;16962;48.646;9.026;2022-11-20T19:12:31;4.60;99.90
30150;DHT22;16962;48.646;9.026;2022-11-20T19:15:18;4.50;99.90
30150;DHT22;16962;48.646;9.026;2022-11-20T19:18:06;4.40;99.90
30150;DHT22;16962;48.646;9.026;2022-11-20T19:20:54;4.40;99.90
30150;DHT22;16962;48.646;9.026;2022-11-20T19:23:41;4.40;99.90
30150;DHT22;16962;48.646;9.026;2022-11-20T19:26:34;4.30;99.90
30150;DHT22;16962;48.646;9.026;2022-11-20T19:29:23;4.30;99.90
30150;DHT22;16962;48.646;9.026;2022-11-20T19:32:11;4.30;99.90
30150;DHT22;16962;48.646;9.026;2022-11-20T19:34:59;4.20;99.90
30150;DHT22;16962;48.646;9.026;2022-11-20T19:37:48;4.20;99.90
30150;DHT22;16962;48.646;9.026;2022-11-20T19:40:35;4.20;99.90
30150;DHT22;16962;48.646;9.026;2022-11-20T19:43:22;4.10;99.90
30150;DHT22;16962;48.646;9.026;2022-11-20T19:46:10;4.10;1.00
30150;DHT22;16962;48.646;9.026;2022-11-20T19:49:01;4.20;1.00
30150;DHT22;16962;48.646;9.026;2022-11-20T19:51:49;4.10;1.00
30150;DHT22;16962;48.646;9.026;2022-11-20T19:54:37;4.10;1.00
30150;DHT22;16962;48.646;9.026;2022-11-20T19:57:25;4.00;1.00
30150;DHT22;16962;48.646;9.026;2022-11-20T20:00:15;4.00;1.00
30150;DHT22;16962;48.646;9.026;2022-11-20T20:03:13;4.00;1.00
30150;DHT22;16962;48.646;9.026;2022-11-20T20:06:04;3.90;1.00
30150;DHT22;16962;48.646;9.026;2022-11-20T20:09:02;3.90;4.10
30150;DHT22;16962;48.646;9.026;2022-11-20T20:11:50;3.90;48.50
30150;DHT22;16962;48.646;9.026;2022-11-20T20:14:37;3.90;99.90
30150;DHT22;16962;48.646;9.026;2022-11-20T20:17:25;3.80;99.90
30150;DHT22;16962;48.646;9.026;2022-11-20T20:20:15;3.80;99.90
30150;DHT22;16962;48.646;9.026;2022-11-20T20:23:05;3.80;99.90
30150;DHT22;16962;48.646;9.026;2022-11-20T20:25:56;3.80;99.90
30150;DHT22;16962;48.646;9.026;2022-11-20T20:28:45;3.80;99.90
30150;DHT22;16962;48.646;9.026;2022-11-20T20:31:35;3.80;99.90
30150;DHT22;16962;48.646;9.026;2022-11-20T20:34:22;3.80;99.90
30150;DHT22;16962;48.646;9.026;2022-11-20T20:37:10;3.80;99.90
30150;DHT22;16962;48.646;9.026;2022-11-20T20:40:00;3.80;99.90
30150;DHT22;16962;48.646;9.026;2022-11-20T20:42:47;3.80;99.90
30150;DHT22;16962;48.646;9.026;2022-11-20T20:45:35;3.80;99.90
30150;DHT22;16962;48.646;9.026;2022-11-20T20:48:23;3.80;99.90
30150;DHT22;16962;48.646;9.026;2022-11-20T20:51:16;3.80;1.00
30150;DHT22;16962;48.646;9.026;2022-11-20T20:54:03;3.80;1.00
30150;DHT22;16962;48.646;9.026;2022-11-20T20:56:51;3.80;1.00
30150;DHT22;16962;48.646;9.026;2022-11-20T20:59:39;3.80;1.00
30150;DHT22;16962;48.646;9.026;2022-11-20T21:02:29;3.70;99.90
30150;DHT22;16962;48.646;9.026;2022-11-20T21:05:20;3.80;99.90
30150;DHT22;16962;48.646;9.026;2022-11-20T21:08:09;3.70;99.90
30150;DHT22;16962;48.646;9.026;2022-11-20T21:11:13;3.70;99.90
30150;DHT22;16962;48.646;9.026;2022-11-20T21:14:01;3.70;1.00
30150;DHT22;16962;48.646;9.026;2022-11-20T21:16:48;3.60;79.50
30150;DHT22;16962;48.646;9.026;2022-11-20T21:19:39;3.60;99.90
30150;DHT22;16962;48.646;9.026;2022-11-20T21:22:28;3.60;99.90
30150;DHT22;16962;48.646;9.026;2022-11-20T21:25:22;3.60;1.00
30150;DHT22;16962;48.646;9.026;2022-11-20T21:28:11;3.50;98.20
30150;DHT22;16962;48.646;9.026;2022-11-20T21:31:06;3.50;99.90
30150;DHT22;16962;48.646;9.026;2022-11-20T21:33:55;3.50;99.90
30150;DHT22;16962;48.646;9.026;2022-11-20T21:36:47;3.50;1.00
30150;DHT22;16962;48.646;9.026;2022-11-20T21:39:34;3.50;99.90
30150;DHT22;16962;48.646;9.026;2022-11-20T21:42:36;3.50;99.90
30150;DHT22;16962;48.646;9.026;2022-11-20T21:45:23;3.50;1.00
30150;DHT22;16962;48.646;9.026;2022-11-20T21:48:10;3.50;1.00
30150;DHT22;16962;48.646;9.026;2022-11-20T21:51:02;3.50;99.90
30150;DHT22;16962;48.646;9.026;2022-11-20T21:53:54;3.50;99.90
30150;DHT22;16962;48.646;9.026;2022-11-20T21:56:42;3.60;1.00
30150;DHT22;16962;48.646;9.026;2022-11-20T21:59:32;3.60;1.00
30150;DHT22;16962;48.646;9.026;2022-11-20T22:02:19;3.60;99.90
30150;DHT22;16962;48.646;9.026;2022-11-20T22:05:07;3.60;99.90
30150;DHT22;16962;48.646;9.026;2022-11-20T22:07:54;3.70;1.00
30150;DHT22;16962;48.646;9.026;2022-11-20T22:10:41;3.70;1.00
30150;DHT22;16962;48.646;9.026;2022-11-20T22:13:29;3.60;99.90
30150;DHT22;16962;48.646;9.026;2022-11-20T22:16:36;3.60;99.90
30150;DHT22;16962;48.646;9.026;2022-11-20T22:19:23;3.60;1.00
30150;DHT22;16962;48.646;9.026;2022-11-20T22:22:10;3.60;1.00
30150;DHT22;16962;48.646;9.026;2022-11-20T22:24:58;3.70;15.30
30150;DHT22;16962;48.646;9.026;2022-11-20T22:27:47;3.70;55.90
30150;DHT22;16962;48.646;9.026;2022-11-20T22:30:37;3.70;99.90
30150;DHT22;16962;48.646;9.026;2022-11-20T22:33:26;3.70;99.90
30150;DHT22;16962;48.646;9.026;2022-11-20T22:36:19;3.70;99.90
30150;DHT22;16962;48.646;9.026;2022-11-20T22:39:06;3.70;99.90
30150;DHT22;16962;48.646;9.026;2022-11-20T22:41:54;3.60;99.90
30150;DHT22;16962;48.646;9.026;2022-11-20T22:44:41;3.70;99.90
30150;DHT22;16962;48.646;9.026;2022-11-20T22:47:28;3.60;99.90
30150;DHT22;16962;48.646;9.026;2022-11-20T22:50:15;3.60;99.90
30150;DHT22;16962;48.646;9.026;2022-11-20T22:53:02;3.60;99.90
30150;DHT22;16962;48.646;9.026;2022-11-20T22:55:53;3.60;99.90
30150;DHT22;16962;48.646;9.026;2022-11-20T22:58:42;3.50;99.90
30150;DHT22;16962;48.646;9.026;2022-11-20T23:01:34;3.50;99.90
30150;DHT22;16962;48.646;9.026;2022-11-20T23:04:22;3.40;99.90
30150;DHT22;16962;48.646;9.026;2022-11-20T23:07:10;3.40;99.90
30150;DHT22;16962;48.646;9.026;2022-11-20T23:09:57;3.40;99.90
30150;DHT22;16962;48.646;9.026;2022-11-20T23:12:44;3.30;99.90
30150;DHT22;16962;48.646;9.026;2022-11-20T23:15:32;3.30;99.90
30150;DHT22;16962;48.646;9.026;2022-11-20T23:18:20;3.40;99.90
30150;DHT22;16962;48.646;9.026;2022-11-20T23:21:17;3.40;99.90
30150;DHT22;16962;48.646;9.026;2022-11-20T23:24:05;3.40;99.90
30150;DHT22;16962;48.646;9.026;2022-11-20T23:26:54;3.30;99.90
30150;DHT22;16962;48.646;9.026;2022-11-20T23:29:46;3.30;99.90
30150;DHT22;16962;48.646;9.026;2022-11-20T23:32:33;3.30;99.90
30150;DHT22;16962;48.646;9.026;2022-11-20T23:35:21;3.30;99.90
30150;DHT22;16962;48.646;9.026;2022-11-20T23:38:11;3.40;99.90
30150;DHT22;16962;48.646;9.026;2022-11-20T23:40:58;3.40;99.90
30150;DHT22;16962;48.646;9.026;2022-11-20T23:43:46;3.50;99.90
30150;DHT22;16962;48.646;9.026;2022-11-20T23:46:33;3.60;99.90
30150;DHT22;16962;48.646;9.026;2022-11-20T23:49:20;3.60;99.90
30150;DHT22;16962;48.646;9.026;2022-11-20T23:52:08;3.60;99.90
30150;DHT22;16962;48.646;9.026;2022-11-20T23:54:55;3.50;99.90
30150;DHT22;16962;48.646;9.026;2022-11-20T23:57:42;3.40;99.90
